Time;durP1;ratioP1;P1;durP2;ratioP2;P2;SDS_P1;SDS_P2;PMS_P1;PMS_P2;Temp;Humidity;BMP_temperature;BMP_pressure;BME280_temperature;BME280_humidity;BME280_pressure;Samples;Min_cycle;Max_cycle;Signal;HPM_P1;HPM_P2
2021/07/24 00:01:07;;;;;;;7.45;2.70;;;;;;;;;;10403608;28;20040;-66
2021/07/24 00:06:06;;;;;;;6.50;3.22;;;;;;;;;;10402764;28;20055;-66
2021/07/24 00:11:05;;;;;;;4.25;3.33;;;;;;;;;;10403350;28;20050;-66
2021/07/24 00:16:04;;;;;;;6.82;3.60;;;;;;;;;;10403369;28;20409;-67
2021/07/24 00:21:03;;;;;;;7.85;3.50;;;;;;;;;;10401914;28;20055;-66
2021/07/24 00:26:03;;;;;;;6.53;3.15;;;;;;;;;;10402979;28;20050;-67
2021/07/24 00:31:01;;;;;;;6.07;3.10;;;;;;;;;;10402580;28;20063;-66
2021/07/24 00:36:09;;;;;;;5.78;3.58;;;;;;;;;;10383961;28;20043;-64
2021/07/24 00:41:10;;;;;;;5.65;3.25;;;;;;;;;;10383436;28;20048;-66
2021/07/24 00:46:09;;;;;;;14.40;3.70;;;;;;;;;;10383298;28;20491;-64
2021/07/24 00:51:09;;;;;;;10.45;3.58;;;;;;;;;;10401527;28;20082;-67
2021/07/24 00:56:08;;;;;;;6.32;3.55;;;;;;;;;;10382592;28;20075;-66
2021/07/24 01:01:06;;;;;;;4.72;2.92;;;;;;;;;;10401546;28;20071;-66
2021/07/24 01:06:09;;;;;;;5.85;2.90;;;;;;;;;;10382791;28;20083;-65
2021/07/24 01:11:09;;;;;;;4.60;3.42;;;;;;;;;;10382433;28;20055;-66
2021/07/24 01:16:08;;;;;;;4.72;3.33;;;;;;;;;;10401125;28;20440;-66
2021/07/24 01:21:10;;;;;;;7.18;3.53;;;;;;;;;;10382300;28;20055;-66
2021/07/24 01:26:24;;;;;;;7.63;3.28;;;;;;;;;;10381880;28;20137;-66
2021/07/24 01:31:24;;;;;;;5.38;3.05;;;;;;;;;;10381091;28;20571;-67
2021/07/24 01:36:24;;;;;;;5.57;3.55;;;;;;;;;;10381505;28;20040;-66
2021/07/24 01:41:24;;;;;;;6.68;3.33;;;;;;;;;;10399316;28;20054;-66
2021/07/24 01:46:23;;;;;;;11.48;4.07;;;;;;;;;;10381037;28;20071;-66
2021/07/24 01:56:56;;;;;;;4.28;3.22;;;;;;;;;;10399597;28;20353;-67
2021/07/24 02:01:55;;;;;;;6.45;2.95;;;;;;;;;;10399157;28;20404;-66
2021/07/24 02:06:54;;;;;;;4.10;2.97;;;;;;;;;;10381015;28;20059;-64
2021/07/24 02:12:09;;;;;;;4.80;3.15;;;;;;;;;;10380873;28;20047;-63
2021/07/24 02:17:16;;;;;;;4.32;2.75;;;;;;;;;;10380626;28;20480;-63
2021/07/24 02:22:16;;;;;;;4.90;3.63;;;;;;;;;;10380861;28;20048;-63
2021/07/24 02:27:24;;;;;;;16.52;3.75;;;;;;;;;;10399068;28;20492;-63
2021/07/24 02:32:25;;;;;;;7.47;3.40;;;;;;;;;;10379295;28;20416;-63
2021/07/24 02:37:23;;;;;;;8.32;3.35;;;;;;;;;;10380141;28;20044;-63
2021/07/24 02:42:23;;;;;;;5.45;3.25;;;;;;;;;;10380068;28;20044;-64
2021/07/24 02:47:23;;;;;;;8.32;3.65;;;;;;;;;;10387047;28;20051;-63
2021/07/24 02:52:24;;;;;;;3.88;3.30;;;;;;;;;;10388548;28;20435;-64
2021/07/24 02:57:25;;;;;;;4.05;3.15;;;;;;;;;;10388346;28;20044;-63
2021/07/24 03:02:25;;;;;;;5.40;3.25;;;;;;;;;;10404928;28;20079;-63
2021/07/24 03:07:23;;;;;;;4.75;3.38;;;;;;;;;;10405603;28;20071;-63
2021/07/24 03:12:22;;;;;;;7.68;3.60;;;;;;;;;;10405683;28;20055;-63
2021/07/24 03:17:22;;;;;;;5.00;3.30;;;;;;;;;;10406087;28;20039;-63
2021/07/24 03:22:20;;;;;;;6.45;3.22;;;;;;;;;;10387485;28;20051;-63
2021/07/24 03:27:19;;;;;;;7.38;3.40;;;;;;;;;;10404802;28;20040;-63
2021/07/24 03:32:17;;;;;;;5.95;4.00;;;;;;;;;;10403973;28;20058;-64
2021/07/24 03:37:20;;;;;;;6.35;3.83;;;;;;;;;;10404183;28;20047;-63
2021/07/24 03:42:19;;;;;;;7.65;3.60;;;;;;;;;;10405378;28;20472;-63
2021/07/24 03:47:17;;;;;;;8.60;3.63;;;;;;;;;;10404009;28;20069;-63
2021/07/24 03:52:17;;;;;;;10.10;4.13;;;;;;;;;;10404222;28;20055;-63
2021/07/24 03:57:16;;;;;;;5.05;3.55;;;;;;;;;;10403769;28;20549;-63
2021/07/24 04:02:18;;;;;;;8.98;4.63;;;;;;;;;;10408452;27;20056;-64
2021/07/24 04:07:19;;;;;;;8.35;4.32;;;;;;;;;;10412170;27;20075;-63
2021/07/24 04:12:18;;;;;;;11.20;4.78;;;;;;;;;;10426180;27;20093;-63
2021/07/24 04:17:16;;;;;;;9.88;5.60;;;;;;;;;;10428768;27;20047;-63
2021/07/24 04:22:15;;;;;;;8.07;5.47;;;;;;;;;;10431489;27;20507;-63
2021/07/24 04:27:15;;;;;;;7.05;4.85;;;;;;;;;;10431306;27;20074;-63
2021/07/24 04:32:14;;;;;;;11.40;4.97;;;;;;;;;;10434675;27;20082;-64
2021/07/24 04:37:12;;;;;;;10.85;7.22;;;;;;;;;;10423283;27;20054;-64
2021/07/24 04:42:11;;;;;;;11.60;4.93;;;;;;;;;;10417453;27;20044;-62
2021/07/24 04:47:10;;;;;;;16.70;6.05;;;;;;;;;;10439388;27;20394;-63
2021/07/24 04:52:09;;;;;;;9.00;6.35;;;;;;;;;;10438907;27;20082;-63
2021/07/24 04:57:07;;;;;;;16.55;7.38;;;;;;;;;;10440121;27;20503;-63
2021/07/24 05:02:06;;;;;;;16.02;7.97;;;;;;;;;;10443503;27;20039;-63
2021/07/24 05:07:06;;;;;;;13.27;8.38;;;;;;;;;;10441376;27;20079;-64
2021/07/24 05:12:04;;;;;;;18.20;8.40;;;;;;;;;;10442736;27;20043;-63
2021/07/24 05:17:06;;;;;;;16.33;7.05;;;;;;;;;;10441552;27;20710;-62
2021/07/24 05:22:06;;;;;;;17.90;9.43;;;;;;;;;;10442160;27;20079;-63
2021/07/24 05:27:05;;;;;;;35.63;29.27;;;;;;;;;;10441994;27;20086;-62
2021/07/24 05:32:04;;;;;;;24.65;13.52;;;;;;;;;;10441057;27;20054;-62
2021/07/24 05:37:02;;;;;;;21.83;15.15;;;;;;;;;;10442040;27;20082;-64
2021/07/24 05:42:02;;;;;;;21.85;11.75;;;;;;;;;;10441638;27;20082;-64
2021/07/24 05:47:02;;;;;;;16.23;8.77;;;;;;;;;;10441637;27;20067;-64
2021/07/24 05:52:01;;;;;;;16.98;9.15;;;;;;;;;;10441502;27;20039;-64
2021/07/24 05:56:59;;;;;;;17.95;8.30;;;;;;;;;;10441485;27;20078;-65
2021/07/24 06:01:59;;;;;;;17.65;8.02;;;;;;;;;;10440740;27;20043;-64
2021/07/24 06:06:57;;;;;;;19.63;8.30;;;;;;;;;;10440525;27;20066;-65
2021/07/24 06:11:56;;;;;;;17.10;7.80;;;;;;;;;;10441074;27;20475;-64
2021/07/24 06:16:54;;;;;;;20.88;8.07;;;;;;;;;;10440358;27;20058;-65
2021/07/24 06:21:54;;;;;;;19.13;7.28;;;;;;;;;;10440645;27;20043;-64
2021/07/24 06:26:53;;;;;;;12.45;6.50;;;;;;;;;;10440334;27;20090;-64
2021/07/24 06:31:51;;;;;;;17.27;7.68;;;;;;;;;;10439741;27;20047;-63
2021/07/24 06:36:51;;;;;;;19.48;7.15;;;;;;;;;;10440338;28;20368;-64
2021/07/24 06:41:53;;;;;;;29.02;7.53;;;;;;;;;;10440648;28;20047;-64
2021/07/24 06:46:51;;;;;;;11.05;6.40;;;;;;;;;;10440276;28;20479;-64
2021/07/24 06:51:49;;;;;;;16.73;6.07;;;;;;;;;;10439807;28;20082;-64
2021/07/24 06:56:48;;;;;;;8.02;4.30;;;;;;;;;;10440118;28;20050;-63
2021/07/24 07:01:48;;;;;;;9.65;5.70;;;;;;;;;;10439559;28;20043;-63
2021/07/24 07:06:46;;;;;;;10.90;5.00;;;;;;;;;;10439203;28;20082;-64
2021/07/24 07:11:45;;;;;;;13.05;5.63;;;;;;;;;;10438665;28;20372;-65
2021/07/24 07:16:43;;;;;;;13.93;5.65;;;;;;;;;;10437943;28;20087;-65
2021/07/24 07:21:43;;;;;;;14.82;6.20;;;;;;;;;;10438371;28;20047;-65
2021/07/24 07:26:41;;;;;;;25.92;6.82;;;;;;;;;;10439522;28;20093;-64
2021/07/24 07:31:40;;;;;;;19.17;6.95;;;;;;;;;;10442163;27;20058;-64
2021/07/24 07:36:38;;;;;;;22.73;6.68;;;;;;;;;;10446074;27;20051;-64
2021/07/24 07:41:38;;;;;;;24.85;8.02;;;;;;;;;;10446880;27;20039;-65
2021/07/24 07:46:36;;;;;;;22.60;6.35;;;;;;;;;;10446313;27;20554;-64
2021/07/24 07:51:35;;;;;;;13.85;5.45;;;;;;;;;;10445698;27;20050;-65
2021/07/24 07:56:33;;;;;;;15.13;5.20;;;;;;;;;;10445950;27;20050;-65
2021/07/24 08:01:33;;;;;;;14.43;6.60;;;;;;;;;;10444784;27;20050;-65
2021/07/24 08:06:31;;;;;;;19.40;7.20;;;;;;;;;;10445778;27;20043;-65
2021/07/24 08:11:30;;;;;;;16.00;5.20;;;;;;;;;;10445525;27;20505;-64
2021/07/24 08:16:28;;;;;;;19.35;4.88;;;;;;;;;;10444973;27;20043;-63
2021/07/24 08:21:28;;;;;;;14.57;4.93;;;;;;;;;;10444907;27;20126;-64
2021/07/24 08:26:26;;;;;;;17.35;5.88;;;;;;;;;;10444849;27;20077;-64
2021/07/24 08:31:24;;;;;;;20.15;5.00;;;;;;;;;;10444151;27;20491;-65
2021/07/24 08:36:23;;;;;;;11.70;5.28;;;;;;;;;;10443842;27;20077;-64
2021/07/24 08:41:23;;;;;;;12.68;5.75;;;;;;;;;;10444356;27;20419;-64
2021/07/24 08:46:21;;;;;;;13.52;4.78;;;;;;;;;;10443641;27;20070;-63
2021/07/24 08:51:20;;;;;;;13.95;5.22;;;;;;;;;;10444633;27;20039;-65
2021/07/24 08:56:23;;;;;;;15.93;5.82;;;;;;;;;;10443744;27;20480;-63
2021/07/24 09:01:23;;;;;;;16.35;5.18;;;;;;;;;;10442732;27;20058;-64
2021/07/24 09:06:23;;;;;;;13.65;4.05;;;;;;;;;;10443273;27;20073;-65
2021/07/24 09:11:22;;;;;;;11.60;4.85;;;;;;;;;;10443180;27;20035;-65
2021/07/24 09:16:20;;;;;;;19.00;7.00;;;;;;;;;;10442963;27;20054;-64
2021/07/24 09:21:20;;;;;;;14.38;4.25;;;;;;;;;;10441909;27;20066;-64
2021/07/24 09:26:29;;;;;;;7.10;4.18;;;;;;;;;;10442709;27;20075;-65
2021/07/24 09:31:28;;;;;;;20.38;4.63;;;;;;;;;;10441379;27;20043;-65
2021/07/24 09:36:34;;;;;;;11.52;4.60;;;;;;;;;;10441434;27;20050;-65
2021/07/24 09:41:32;;;;;;;7.15;4.15;;;;;;;;;;10441833;27;20046;-65
2021/07/24 09:46:32;;;;;;;8.93;4.03;;;;;;;;;;10441403;27;20070;-65
2021/07/24 09:51:35;;;;;;;13.82;5.13;;;;;;;;;;10440849;27;20424;-61
2021/07/24 09:56:40;;;;;;;6.05;4.35;;;;;;;;;;10440898;27;20047;-61
2021/07/24 10:01:38;;;;;;;9.32;4.03;;;;;;;;;;10441081;27;20054;-60
2021/07/24 10:06:42;;;;;;;4.82;3.33;;;;;;;;;;10440122;27;20499;-61
2021/07/24 10:11:40;;;;;;;4.00;2.77;;;;;;;;;;10440747;27;20107;-60
2021/07/24 10:16:38;;;;;;;9.88;3.88;;;;;;;;;;10419468;27;20054;-60
2021/07/24 10:21:37;;;;;;;7.57;3.63;;;;;;;;;;10439825;27;20043;-59
2021/07/24 10:26:36;;;;;;;7.00;4.25;;;;;;;;;;10437909;27;20089;-61
2021/07/24 10:31:39;;;;;;;5.70;3.15;;;;;;;;;;10437653;27;20087;-59
2021/07/24 10:36:38;;;;;;;14.63;7.32;;;;;;;;;;10439258;28;20051;-60
2021/07/24 10:41:54;;;;;;;6.40;3.97;;;;;;;;;;10438916;28;20066;-60
2021/07/24 10:47:14;;;;;;;4.80;3.30;;;;;;;;;;10439906;28;20094;-60
2021/07/24 10:52:13;;;;;;;7.72;3.85;;;;;;;;;;10440325;28;20558;-61
2021/07/24 10:57:11;;;;;;;11.25;3.88;;;;;;;;;;10438804;28;20076;-62
2021/07/24 11:02:13;;;;;;;5.35;4.85;;;;;;;;;;10439882;28;20409;-60
2021/07/24 11:07:29;;;;;;;7.78;5.00;;;;;;;;;;10443600;27;20110;-60
2021/07/24 11:12:34;;;;;;;7.75;4.47;;;;;;;;;;10447654;27;20066;-60
2021/07/24 11:17:33;;;;;;;11.93;5.13;;;;;;;;;;10447603;27;20051;-60
2021/07/24 11:22:32;;;;;;;7.85;4.20;;;;;;;;;;10448140;27;20042;-59
2021/07/24 11:27:31;;;;;;;9.70;4.68;;;;;;;;;;10446660;27;20081;-59
2021/07/24 11:32:31;;;;;;;8.10;5.13;;;;;;;;;;10446069;27;20051;-60
2021/07/24 11:37:34;;;;;;;5.38;4.20;;;;;;;;;;10446169;27;20082;-60
2021/07/24 11:42:32;;;;;;;7.97;4.13;;;;;;;;;;10446416;27;20047;-60
2021/07/24 11:47:32;;;;;;;8.70;5.22;;;;;;;;;;10427561;27;20471;-61
2021/07/24 11:52:30;;;;;;;5.60;3.60;;;;;;;;;;10446273;27;20078;-60
2021/07/24 11:57:29;;;;;;;8.82;4.22;;;;;;;;;;10446305;27;20067;-60
2021/07/24 12:02:27;;;;;;;8.98;4.43;;;;;;;;;;10445619;27;20043;-60
2021/07/24 12:07:27;;;;;;;12.35;5.10;;;;;;;;;;10445825;27;20492;-60
2021/07/24 12:12:26;;;;;;;5.78;3.83;;;;;;;;;;10445349;27;20043;-58
2021/07/24 12:17:25;;;;;;;9.45;5.72;;;;;;;;;;10444484;27;20051;-57
2021/07/24 12:22:24;;;;;;;11.00;4.50;;;;;;;;;;10445448;27;20035;-58
2021/07/24 12:27:25;;;;;;;10.95;4.63;;;;;;;;;;10426042;27;20047;-59
2021/07/24 12:32:24;;;;;;;11.27;3.80;;;;;;;;;;10444561;27;20095;-59
2021/07/24 12:37:29;;;;;;;7.60;4.20;;;;;;;;;;10444315;27;20043;-58
2021/07/24 12:42:34;;;;;;;11.00;6.50;;;;;;;;;;10444571;27;20039;-58
2021/07/24 12:47:36;;;;;;;13.70;4.60;;;;;;;;;;10443543;27;20116;-59
2021/07/24 12:52:42;;;;;;;8.68;4.18;;;;;;;;;;10443648;27;20038;-59
2021/07/24 12:57:42;;;;;;;6.35;3.33;;;;;;;;;;10443938;27;20054;-58
2021/07/24 13:02:41;;;;;;;8.55;3.53;;;;;;;;;;10443730;27;20512;-60
2021/07/24 13:07:40;;;;;;;5.93;4.25;;;;;;;;;;10442322;27;20455;-59
2021/07/24 13:12:39;;;;;;;5.10;3.63;;;;;;;;;;10442525;27;20060;-60
2021/07/24 13:17:38;;;;;;;4.15;3.50;;;;;;;;;;10428350;27;20090;-60
2021/07/24 13:22:38;;;;;;;5.85;3.28;;;;;;;;;;10418222;27;20058;-59
2021/07/24 13:32:55;;;;;;;6.22;4.22;;;;;;;;;;10439189;27;20431;-60
2021/07/24 13:37:53;;;;;;;6.35;4.50;;;;;;;;;;10441870;27;20051;-60
2021/07/24 13:42:51;;;;;;;4.00;3.20;;;;;;;;;;10441134;27;20073;-60
2021/07/24 13:47:50;;;;;;;3.97;3.58;;;;;;;;;;10441846;27;20075;-60
2021/07/24 13:52:49;;;;;;;5.47;3.22;;;;;;;;;;10441107;27;20511;-60
2021/07/24 13:57:48;;;;;;;5.20;3.63;;;;;;;;;;10439374;27;20078;-59
2021/07/24 14:02:46;;;;;;;6.25;3.63;;;;;;;;;;10431113;27;20059;-59
2021/07/24 14:07:44;;;;;;;5.47;3.28;;;;;;;;;;10416530;27;20079;-60
2021/07/24 14:12:44;;;;;;;5.35;4.03;;;;;;;;;;10405816;27;20077;-60
2021/07/24 14:17:46;;;;;;;6.35;4.38;;;;;;;;;;10424156;27;20515;-60
2021/07/24 14:22:45;;;;;;;7.55;4.57;;;;;;;;;;10406774;27;20039;-60
2021/07/24 14:27:44;;;;;;;12.20;4.15;;;;;;;;;;10415617;27;20146;-59
2021/07/24 14:32:43;;;;;;;7.43;4.35;;;;;;;;;;10424866;27;20064;-60
2021/07/24 14:37:41;;;;;;;8.02;5.13;;;;;;;;;;10397922;28;20508;-59
2021/07/24 14:42:39;;;;;;;5.05;4.55;;;;;;;;;;10410836;28;20408;-60
2021/07/24 14:47:39;;;;;;;8.30;5.18;;;;;;;;;;10393884;28;20409;-60
2021/07/24 14:52:37;;;;;;;17.00;5.45;;;;;;;;;;10410957;28;20071;-60
2021/07/24 14:57:35;;;;;;;9.02;5.30;;;;;;;;;;10416963;27;20538;-60
2021/07/24 15:02:34;;;;;;;6.75;5.00;;;;;;;;;;10428645;27;20703;-60
2021/07/24 15:07:34;;;;;;;7.13;4.85;;;;;;;;;;10423504;27;20082;-60
2021/07/24 15:12:32;;;;;;;10.23;6.10;;;;;;;;;;10417232;27;20069;-61
2021/07/24 15:17:34;;;;;;;7.55;5.55;;;;;;;;;;10429408;27;20079;-60
2021/07/24 15:22:34;;;;;;;9.52;6.35;;;;;;;;;;10430034;27;20070;-60
2021/07/24 15:27:33;;;;;;;6.43;5.35;;;;;;;;;;10446338;27;20094;-61
2021/07/24 15:32:32;;;;;;;6.00;5.40;;;;;;;;;;10417046;27;20043;-60
2021/07/24 15:37:31;;;;;;;13.15;5.80;;;;;;;;;;10417125;27;20387;-61
2021/07/24 15:42:30;;;;;;;10.10;6.70;;;;;;;;;;10399649;27;20413;-60
2021/07/24 15:47:29;;;;;;;6.75;5.97;;;;;;;;;;10422170;27;20093;-59
2021/07/24 15:52:30;;;;;;;6.40;5.47;;;;;;;;;;10425309;27;20070;-60
2021/07/24 15:57:28;;;;;;;5.35;4.88;;;;;;;;;;10439406;27;20047;-60
2021/07/24 16:02:30;;;;;;;9.57;4.97;;;;;;;;;;10435585;27;20067;-60
2021/07/24 16:07:28;;;;;;;7.38;6.00;;;;;;;;;;10445554;27;20066;-60
2021/07/24 16:12:27;;;;;;;9.65;7.07;;;;;;;;;;10433118;27;20085;-59
2021/07/24 16:17:46;;;;;;;13.55;6.70;;;;;;;;;;10417889;27;20071;-60
2021/07/24 16:22:45;;;;;;;8.57;5.63;;;;;;;;;;10425591;27;20066;-60
2021/07/24 16:27:43;;;;;;;8.40;5.75;;;;;;;;;;10423122;27;20074;-60
2021/07/24 16:32:42;;;;;;;10.95;6.65;;;;;;;;;;10435200;27;20089;-60
2021/07/24 16:37:42;;;;;;;13.60;6.18;;;;;;;;;;10419623;27;20082;-60
2021/07/24 16:42:40;;;;;;;15.57;12.20;;;;;;;;;;10424482;27;20355;-61
2021/07/24 16:47:38;;;;;;;8.32;5.28;;;;;;;;;;10429376;27;20070;-60
2021/07/24 16:52:42;;;;;;;11.80;7.07;;;;;;;;;;10436725;27;20051;-59
2021/07/24 16:57:41;;;;;;;10.93;6.85;;;;;;;;;;10431994;27;20086;-60
2021/07/24 17:02:40;;;;;;;7.47;6.50;;;;;;;;;;10436519;27;20070;-60
2021/07/24 17:07:40;;;;;;;13.32;5.60;;;;;;;;;;10437325;27;20078;-60
2021/07/24 17:12:40;;;;;;;14.18;6.75;;;;;;;;;;10440485;27;20070;-60
2021/07/24 17:17:39;;;;;;;8.35;5.15;;;;;;;;;;10442453;27;20050;-60
2021/07/24 17:22:37;;;;;;;8.88;5.45;;;;;;;;;;10441776;27;20062;-60
2021/07/24 17:27:35;;;;;;;6.88;4.85;;;;;;;;;;10442452;27;20043;-60
2021/07/24 17:32:35;;;;;;;11.43;5.72;;;;;;;;;;10441258;27;20059;-60
2021/07/24 17:37:33;;;;;;;7.53;5.47;;;;;;;;;;10393336;27;20170;-59
2021/07/24 17:42:32;;;;;;;9.18;4.82;;;;;;;;;;10426169;27;20486;-62
2021/07/24 17:47:30;;;;;;;15.32;5.72;;;;;;;;;;10439101;27;20471;-60
2021/07/24 17:52:30;;;;;;;7.65;6.28;;;;;;;;;;10438415;27;20067;-60
2021/07/24 17:57:28;;;;;;;6.05;4.80;;;;;;;;;;10440726;27;20705;-60
2021/07/24 18:02:26;;;;;;;10.52;7.15;;;;;;;;;;10438177;27;20039;-60
2021/07/24 18:07:26;;;;;;;10.90;7.97;;;;;;;;;;10437453;27;20039;-60
2021/07/24 18:12:25;;;;;;;9.52;6.85;;;;;;;;;;10436664;27;20495;-60
2021/07/24 18:17:23;;;;;;;8.57;6.38;;;;;;;;;;10438970;27;20483;-60
2021/07/24 18:22:22;;;;;;;7.15;6.05;;;;;;;;;;10435985;27;20042;-60
2021/07/24 18:27:21;;;;;;;13.45;6.10;;;;;;;;;;10436992;27;20063;-60
2021/07/24 18:32:20;;;;;;;5.30;4.75;;;;;;;;;;10438337;27;20141;-60
2021/07/24 18:37:19;;;;;;;8.75;5.15;;;;;;;;;;10438932;27;20039;-60
2021/07/24 18:42:18;;;;;;;8.95;5.30;;;;;;;;;;10438854;28;20031;-60
2021/07/24 18:47:17;;;;;;;5.00;4.50;;;;;;;;;;10437932;28;20050;-60
2021/07/24 18:52:16;;;;;;;7.35;4.60;;;;;;;;;;10438267;28;20074;-61
2021/07/24 18:57:15;;;;;;;6.65;4.93;;;;;;;;;;10437234;28;20464;-60
2021/07/24 19:02:14;;;;;;;6.80;5.65;;;;;;;;;;10437795;28;20071;-60
2021/07/24 19:07:12;;;;;;;6.47;4.78;;;;;;;;;;10438083;28;20074;-61
2021/07/24 19:12:26;;;;;;;13.35;7.57;;;;;;;;;;10437605;28;20083;-61
2021/07/24 19:17:24;;;;;;;10.88;7.32;;;;;;;;;;10438006;28;20035;-59
2021/07/24 19:22:24;;;;;;;9.20;5.32;;;;;;;;;;10438084;28;20546;-60
2021/07/24 19:27:23;;;;;;;5.47;4.53;;;;;;;;;;10441086;27;20046;-60
2021/07/24 19:32:23;;;;;;;5.22;4.72;;;;;;;;;;10446936;27;20087;-60
2021/07/24 19:37:23;;;;;;;7.40;4.97;;;;;;;;;;10447328;27;20384;-60
2021/07/24 19:42:21;;;;;;;7.22;4.65;;;;;;;;;;10446317;27;20055;-60
2021/07/24 19:47:20;;;;;;;6.55;4.53;;;;;;;;;;10446007;27;20109;-60
2021/07/24 19:52:20;;;;;;;10.75;5.07;;;;;;;;;;10446523;27;20062;-58
2021/07/24 19:57:19;;;;;;;10.40;4.35;;;;;;;;;;10446051;27;20082;-59
2021/07/24 20:02:17;;;;;;;8.02;4.18;;;;;;;;;;10445499;27;20043;-60
2021/07/24 20:07:18;;;;;;;8.57;4.30;;;;;;;;;;10445817;27;20043;-61
2021/07/24 20:12:18;;;;;;;4.43;3.60;;;;;;;;;;10445779;27;20071;-60
2021/07/24 20:17:17;;;;;;;6.93;4.07;;;;;;;;;;10445373;27;20046;-60
2021/07/24 20:22:16;;;;;;;9.20;4.03;;;;;;;;;;10444573;27;20051;-60
2021/07/24 20:27:15;;;;;;;7.85;5.82;;;;;;;;;;10445342;27;20148;-60
2021/07/24 20:32:14;;;;;;;7.05;3.90;;;;;;;;;;10443452;27;20098;-60
2021/07/24 20:37:13;;;;;;;8.45;3.88;;;;;;;;;;10444197;27;20051;-60
2021/07/24 20:42:11;;;;;;;6.35;4.22;;;;;;;;;;10444671;27;20039;-60
2021/07/24 20:47:09;;;;;;;7.13;3.97;;;;;;;;;;10443693;27;20039;-59
2021/07/24 20:52:09;;;;;;;10.82;3.92;;;;;;;;;;10443719;27;20093;-61
2021/07/24 20:57:07;;;;;;;5.88;3.72;;;;;;;;;;10443412;27;20070;-60
2021/07/24 21:02:07;;;;;;;11.38;3.78;;;;;;;;;;10443162;27;20039;-60
2021/07/24 21:07:06;;;;;;;9.32;4.18;;;;;;;;;;10443818;27;20043;-60
2021/07/24 21:12:06;;;;;;;7.22;3.80;;;;;;;;;;10442807;27;20077;-60
2021/07/24 21:17:05;;;;;;;5.28;3.78;;;;;;;;;;10442549;27;20058;-58
2021/07/24 21:22:04;;;;;;;9.88;3.72;;;;;;;;;;10442389;27;20047;-58
2021/07/24 21:27:02;;;;;;;6.93;3.92;;;;;;;;;;10442153;27;20043;-58
2021/07/24 21:32:02;;;;;;;4.43;3.30;;;;;;;;;;10442265;27;20083;-59
2021/07/24 21:37:00;;;;;;;11.88;5.70;;;;;;;;;;10441971;27;20070;-59
2021/07/24 21:41:59;;;;;;;8.35;5.65;;;;;;;;;;10441557;27;20039;-60
2021/07/24 21:46:57;;;;;;;6.85;5.45;;;;;;;;;;10442171;27;20074;-59
2021/07/24 21:51:57;;;;;;;9.82;4.90;;;;;;;;;;10440510;27;20059;-57
2021/07/24 21:56:55;;;;;;;4.93;4.43;;;;;;;;;;10441572;27;20055;-59
2021/07/24 22:01:53;;;;;;;7.82;5.25;;;;;;;;;;10441234;27;20054;-58
2021/07/24 22:06:52;;;;;;;7.72;5.57;;;;;;;;;;10441210;27;20039;-60
2021/07/24 22:11:52;;;;;;;9.73;5.18;;;;;;;;;;10441375;27;20104;-59
2021/07/24 22:16:50;;;;;;;7.85;5.47;;;;;;;;;;10441302;27;20495;-59
2021/07/24 22:21:52;;;;;;;9.77;5.60;;;;;;;;;;10440291;27;20051;-59
2021/07/24 22:26:52;;;;;;;10.30;5.53;;;;;;;;;;10440891;27;20484;-60
2021/07/24 22:31:51;;;;;;;7.88;4.20;;;;;;;;;;10439877;27;20113;-59
2021/07/24 22:36:49;;;;;;;9.32;4.82;;;;;;;;;;10439976;27;20408;-60
2021/07/24 22:41:47;;;;;;;7.07;3.80;;;;;;;;;;10440028;28;20043;-60
2021/07/24 22:46:47;;;;;;;9.73;4.40;;;;;;;;;;10440348;28;20396;-59
2021/07/24 22:51:47;;;;;;;9.68;4.60;;;;;;;;;;10439635;28;20058;-59
2021/07/24 22:56:45;;;;;;;15.50;4.18;;;;;;;;;;10428487;27;20044;-60
2021/07/24 23:01:43;;;;;;;7.38;4.30;;;;;;;;;;10437754;27;20043;-59
2021/07/24 23:06:44;;;;;;;6.10;4.30;;;;;;;;;;10446691;27;20510;-59
2021/07/24 23:11:42;;;;;;;14.40;4.40;;;;;;;;;;10447077;27;20514;-60
2021/07/24 23:16:40;;;;;;;7.80;3.83;;;;;;;;;;10447031;27;20039;-60
2021/07/24 23:21:39;;;;;;;6.82;4.35;;;;;;;;;;10447725;27;20201;-59
2021/07/24 23:26:38;;;;;;;5.80;4.47;;;;;;;;;;10441263;27;20070;-58
2021/07/24 23:31:37;;;;;;;5.18;4.22;;;;;;;;;;10407604;27;20071;-59
2021/07/24 23:36:35;;;;;;;5.72;4.57;;;;;;;;;;10413916;27;20094;-59
2021/07/24 23:41:33;;;;;;;8.00;4.30;;;;;;;;;;10405327;28;20067;-58
2021/07/24 23:46:33;;;;;;;5.95;4.03;;;;;;;;;;10404404;28;20047;-59
2021/07/24 23:51:32;;;;;;;6.28;3.72;;;;;;;;;;10405601;28;20082;-59
2021/07/24 23:56:30;;;;;;;5.47;4.18;;;;;;;;;;10404396;28;20043;-60
